Aviation Digital Data Service (ADDS)

Output produced by METARs form (0930 UTC 17 October 2017)
found at http://www.aviationweather.gov/adds/metars/
 
KPIT 170851Z 00000KT 10SM CLR 03/01 A3031 RMK AO2 SLP277 T00280011 51006
KPIT 170751Z 00000KT 10SM CLR 03/01 A3031 RMK AO2 SLP275 T00280011
KPIT 170651Z 00000KT 10SM CLR 03/02 A3030 RMK AO2 SLP273 T00330017
KPIT 170551Z 00000KT 10SM CLR 03/02 A3029 RMK AO2 SLP270 T00330017 10106 20033 58002
KPIT 170451Z 00000KT 10SM CLR 04/02 A3029 RMK AO2 SLP270 T00440022 401500039
KPIT 170351Z 00000KT 10SM CLR 06/02 A3030 RMK AO2 SLP272 T00560022
KPIT 170251Z 00000KT 10SM CLR 07/02 A3030 RMK AO2 SLP273 T00670022 51013
KPIT 170151Z 34005KT 10SM CLR 09/01 A3029 RMK AO2 SLP268 T00890011
KPIT 170051Z 35007KT 10SM CLR 10/01 A3028 RMK AO2 SLP263 T01000011
KPIT 162351Z 35006KT 10SM CLR 11/01 A3026 RMK AO2 SLP258 T01060011 10150 20106 53017
KPIT 162251Z 33008KT 10SM FEW046 12/01 A3023 RMK AO2 SLP248 T01170006
KPIT 162151Z 34014KT 10SM SCT046 13/00 A3023 RMK AO2 SLP246 T01330000
KPIT 162051Z 32012KT 10SM SCT045 14/M01 A3021 RMK AO2 SLP238 T01441006 56004
KPIT 161951Z 31013KT 10SM FEW043 FEW070 14/02 A3021 RMK AO2 SLP238 T01390022
KPIT 161851Z 32011G21KT 10SM SCT040 SCT065 14/02 A3021 RMK AO2 SLP238 T01390022
KPIT 161751Z 32011KT 10SM FEW038 SCT060 13/04 A3022 RMK AO2 RAB15E24 SLP242 P0000 60000 T01330044 10139 20083 56002
KPIT 161651Z 33012G20KT 10SM BKN036 BKN065 13/03 A3023 RMK AO2 SLP243 T01330028
KPIT 161624Z 36010KT 10SM BKN034 BKN060 12/04 A3023 RMK AO2 T01220044
KPIT 161551Z 34011G19KT 10SM BKN028 BKN040 BKN075 13/05 A3022 RMK AO2 SLP243 T01280050
KPIT 161451Z 01010KT 10SM BKN028 BKN040 BKN075 11/06 A3023 RMK AO2 SLP245 60000 T01060061 51019
KPIT 161434Z 35009KT 10SM FEW020 BKN025 BKN040 11/07 A3022 RMK AO2 T01060067
KPIT 161351Z 34010KT 10SM SCT011 BKN032 BKN055 10/07 A3021 RMK AO2 RAE09 SLP239 P0000 T01000067
KPIT 161322Z 35008KT 10SM FEW009 BKN032 BKN070 09/07 A3020 RMK AO2 RAE09 P0000 T00940072
KPIT 161251Z 33007KT 10SM -RA FEW009 BKN028 BKN045 09/07 A3019 RMK AO2 RAE18B48DZB18E48 SLP234 P0000 T00890072
KPIT 161151Z 34009KT 10SM -RA FEW007 BKN028 OVC038 09/08 A3017 RMK AO2 DZE44RAB44 SLP225 P0000 60000 70019 T00890078 10128 20089 51020
KPIT 161137Z 31007KT 10SM -DZ FEW007 BKN028 OVC036 09/08 A3017 RMK AO2 P0000 T00890083
KPIT 161051Z 31008KT 10SM -DZ FEW006 OVC036 09/08 A3015 RMK AO2 SLP217 BINOVC P0000 T00890083
KPIT 161025Z 32007KT 8SM -DZ FEW006 OVC036 09/08 A3014 RMK AO2 P0000 T00890083
KPIT 160951Z 31007KT 10SM -DZ SCT022 OVC033 09/08 A3013 RMK AO2 RAB04E33DZB33 SLP209 P0000 T00890078